Flight Track Log - Related Links

Times and Time Zones

All times are in EDT time to prevent confusion due to time zone crossing. See the AAR8734 flight status page for this flight to view local times or setup timezone preferences in your user account.

Time Position Orientation Groundspeed Altitude Reporting Facility
EDT Latitude Longitude Course Direction KTS MPH feet Rate Location/Type
Sun 10:33:00 PM 35.7218 127.3541 346° North  Level Estimated
Sun 10:34:00 PM 35.8020 127.3301 346° North  Level Estimated
Sun 10:35:00 PM 35.8821 127.3060 346° North  Level Estimated
Sun 10:36:00 PM 35.9623 127.2819 346° North  Level Estimated
Sun 10:37:00 PM 36.0424 127.2577 346° North  Level Estimated
Sun 10:38:00 PM 36.1226 127.2335 346° North  Level Estimated
Sun 10:39:00 PM 36.2027 127.2092 346° North  Level Estimated
Sun 10:40:00 PM 36.2828 127.1849 346° North  Level Estimated
Sun 10:41:00 PM 36.3629 127.1605 346° North  Level Estimated
Sun 10:42:00 PM 36.4431 127.1361 346° North  Level Estimated
Sun 10:43:00 PM 36.5232 127.1116 346° North  Level Estimated
Sun 10:44:00 PM 36.6033 127.0871 346° North  Level Estimated
Sun 10:45:00 PM 36.6834 127.0625 346° North  Level Estimated
Sun 10:46:00 PM 36.7635 127.0379 346° North  Level Estimated
Sun 10:47:00 PM 36.8436 127.0132 346° North  Level Estimated
Sun 10:48:00 PM 36.9237 126.9885 346° North  Level Estimated
Sun 10:49:00 PM 37.0037 126.9637 346° North  Level Estimated
Sun 10:50:00 PM 37.0838 126.9389 346° North  Level Estimated
Sun 10:51:00 PM 37.1639 126.9140 346° North  Level Estimated
Sun 10:52:00 PM 37.2440 126.8890 346° North  Level Estimated
Sun 10:53:00 PM 37.3240 126.8640 346° North  Level Estimated
Sun 10:54:00 PM 37.4041 126.8390 346° North  Level Estimated
Sun 10:55:00 PM 37.4841 126.8139 346° North  Level Estimated
Sun 10:56:00 PM 37.5583 126.7906 346° North  Level Estimated
Sun 10:57:00 PM 37.5583 126.7906 288° West  Level Estimated
Sun 10:58:00 PM 37.5583 126.7906 288° West  Level Estimated
Sun 10:59:00 PM 37.5583 126.7906 288° West  Level Estimated
Sun 11:00:00 PM 37.5583 126.7906 288° West  Level Estimated
Sun 11:01:00 PM 37.5583 126.7906 288° West  Level Estimated
Sun 11:02:00 PM 37.5583 126.7906 288° West  Level Estimated
Sun 11:03:00 PM 37.5583 126.7906 288° West  Level Estimated
Sun 11:04:00 PM 37.5583 126.7906 288° West  Level Estimated
Sun 11:05:00 PM 37.5583 126.7906 288° West  Level Estimated
Sun 11:06:00 PM 37.5583 126.7906 288° West  Level Estimated
Sun 11:07:00 PM 37.5583 126.7906 288° West  Level Estimated
Sun 11:08:00 PM 37.5583 126.7906 288° West  Level Estimated
Sun 11:09:00 PM 37.5583 126.7906 288° West  Level Estimated
Sun 11:10:00 PM 37.5583 126.7906 288° West  Level Estimated
Sun 11:11:00 PM 37.5583 126.7906 288° West  Level Estimated
Sun 11:12:00 PM 37.5583 126.7906 288° West  Level Estimated

Login

Don't have an account? Register now (free) for customized features, flight alerts, and more!